Terminal Aerodrome Forecast
Issued by NWS

Current Version | Previous Version | Text Only | Print | Product List | Glossary On
Versions: 1 2 3 4 5 6 7 8 9 10 11 12 13 14 15 16
000
FTUS41 KPHI 021137
TAFPNE
TAF
KPNE 021137Z 0212/0312 00000KT 1/4SM FG VV002
      TEMPO 0212/0213 1/2SM FG
     FM021300 VRB03KT 2SM BR SCT004
     FM021400 21006KT P6SM FEW050
     FM022100 14005KT P6SM SCT250=

USA.gov is the U.S. government's official web portal to all federal, state and local government web resources and services.